Flight Track Log - Related Links

Times and Time Zones

All times are in EDT time to prevent confusion due to time zone crossing. See the DAL3643 flight status page for this flight to view local times or setup timezone preferences in your user account.

Time Position Orientation Groundspeed Altitude Reporting Facility
EDT Latitude Longitude Course Direction KTS MPH feet Rate Location/Type
Sun 05:25:40 PM 39.0500 -84.6833 270° West 163 188 1,300  Level Cincinnati TRACON
Sun 05:25:58 PM 39.0500 -84.7000 270° West 168 193 1,700 1,692 Climbing Cincinnati TRACON
Sun 05:26:58 PM 39.0500 -84.7833 270° West 243 280 3,500 2,000 Climbing Cincinnati TRACON
Sun 05:27:58 PM 39.0333 -84.8833 258° West 277 319 5,700 2,400 Climbing Cincinnati TRACON
Sun 05:28:58 PM 38.9667 -84.9167 201° Southwest 322 371 8,300 2,592 Climbing Cincinnati TRACON
Sun 05:30:03 PM 38.8833 -84.8747 159° South 311 358 11,100 1,762 Climbing Indianapolis Center
Sun 05:31:04 PM 38.7928 -84.8950 190° South 320 368 12,000 1,415 Climbing Indianapolis Center
Sun 05:32:06 PM 38.6933 -84.9228 192° South 352 405 14,000 1,839 Climbing Indianapolis Center
Sun 05:33:08 PM 38.5981 -84.9786 205° Southwest 363 418 15,800 1,854 Climbing Indianapolis Center
Sun 05:34:09 PM 38.5128 -85.0556 215° Southwest 367 422 17,800 1,854 Climbing Indianapolis Center
Sun 05:35:11 PM 38.4283 -85.1317 215° Southwest 369 425 19,600 1,839 Climbing Indianapolis Center
Sun 05:36:13 PM 38.3364 -85.2153 216° Southwest 374 430 21,600 1,610 Climbing Indianapolis Center
Sun 05:37:14 PM 38.2483 -85.2928 215° Southwest 376 433 22,900 1,073 Climbing Indianapolis Center
Sun 05:38:16 PM 38.1567 -85.3747 215° Southwest 391 450 23,800 968 Climbing Indianapolis Center
Sun 05:39:18 PM 38.0622 -85.4592 215° Southwest 405 466 24,900 1,122 Climbing Indianapolis Center
Sun 05:40:19 PM 37.9667 -85.5436 215° Southwest 409 471 26,100 1,220 Climbing Indianapolis Center
Sun 05:41:21 PM 37.8706 -85.6281 215° Southwest 415 478 27,400 1,306 Climbing Indianapolis Center
Sun 05:42:23 PM 37.7553 -85.7289 215° Southwest 415 478 28,800 1,258 Climbing Indianapolis Center
Sun 05:43:25 PM 37.6589 -85.8142 215° Southwest 415 478 30,000 1,171 Climbing Indianapolis Center
Sun 05:44:26 PM 37.5619 -85.8981 214° Southwest 416 479 31,200 976 Climbing Indianapolis Center
Sun 05:45:28 PM 37.4706 -85.9769 214° Southwest 416 479 32,000 387 Climbing Indianapolis Center
Sun 05:46:30 PM 37.3736 -86.0611 215° Southwest 416 479 32,000  Level Indianapolis Center
Sun 05:47:32 PM 37.2761 -86.1447 214° Southwest 416 479 32,000  Level Indianapolis Center
Sun 05:48:27 PM 37.1778 -86.2319 215° Southwest 424 488 32,000  Level Memphis Center
Sun 05:49:29 PM 37.0778 -86.3181 214° Southwest 428 493 32,000  Level Memphis Center
Sun 05:50:31 PM 36.9789 -86.4067 216° Southwest 431 496 32,000 244 Level Memphis Center
Sun 05:51:32 PM 36.9172 -86.5369 239° Southwest 434 499 32,500 732 Climbing Memphis Center
Sun 05:52:34 PM 36.8914 -86.6817 257° West 430 495 33,500 726 Climbing Memphis Center
Sun 05:53:36 PM 36.8642 -86.8506 259° West 428 493 34,000 242 Climbing Memphis Center
Sun 05:54:38 PM 36.8394 -86.9961 258° West 428 493 34,000  Level Memphis Center
Sun 05:55:40 PM 36.8147 -87.1436 258° West 428 493 34,000  Level Memphis Center
Sun 05:56:42 PM 36.7914 -87.2869 259° West 426 490 34,000 145 Level Memphis Center
Sun 05:57:44 PM 36.7675 -87.4250 258° West 412 474 34,300 484 Climbing Memphis Center
Sun 05:58:46 PM 36.7453 -87.5617 259° West 405 466 35,000 339 Climbing Memphis Center
Sun 05:59:48 PM 36.7206 -87.7031 258° West 409 471 35,000  Level Memphis Center
Sun 06:00:50 PM 36.6664 -87.8589 247° West 415 478 35,000  Level Memphis Center
Sun 06:01:52 PM 36.6089 -87.9906 241° Southwest 424 488 35,000 194 Level Memphis Center
Sun 06:02:54 PM 36.5483 -88.1286 241° Southwest 425 489 35,400 484 Climbing Memphis Center
Sun 06:03:56 PM 36.4931 -88.2578 242° Southwest 425 489 36,000 290 Climbing Memphis Center
Sun 06:04:58 PM 36.4361 -88.3883 242° Southwest 425 489 36,000  Level Memphis Center
Sun 06:06:00 PM 36.3789 -88.5161 241° Southwest 425 489 36,000  Level Memphis Center
Sun 06:07:02 PM 36.3233 -88.6428 241° Southwest 422 486 36,000  Level Memphis Center
Sun 06:08:04 PM 36.2669 -88.7706 241° Southwest 422 486 36,000  Level Memphis Center
Sun 06:09:06 PM 36.2100 -88.8986 241° Southwest 422 486 36,000  Level Memphis Center
Sun 06:10:08 PM 36.1508 -89.0275 240° Southwest 422 486 36,000  Level Memphis Center
Sun 06:11:10 PM 36.0806 -89.1850 241° Southwest 426 490 36,000  Level Memphis Center
Sun 06:12:12 PM 36.0228 -89.3161 241° Southwest 427 491 36,000  Level Memphis Center
Sun 06:13:14 PM 35.9644 -89.4456 241° Southwest 427 491 36,000  Level Memphis Center
Sun 06:14:16 PM 35.9053 -89.5758 241° Southwest 427 491 36,000  Level Memphis Center
Sun 06:15:18 PM 35.8475 -89.7044 241° Southwest 428 493 36,000  Level Memphis Center
Sun 06:16:20 PM 35.7897 -89.8333 241° Southwest 428 493 36,000  Level Memphis Center
Sun 06:17:21 PM 35.7308 -89.9594 240° Southwest 428 493 36,000  Level Memphis Center
Sun 06:18:23 PM 35.6667 -90.1008 241° Southwest 427 491 36,000  Level Memphis Center
Sun 06:19:25 PM 35.6092 -90.2244 240° Southwest 423 487 36,000  Level Memphis Center
Sun 06:20:27 PM 35.5514 -90.3486 240° Southwest 423 487 36,000  Level Memphis Center
Sun 06:21:29 PM 35.4936 -90.4733 240° Southwest 423 487 36,000  Level Memphis Center
Sun 06:22:31 PM 35.4244 -90.6211 240° Southwest 422 486 36,000  Level Memphis Center
Sun 06:23:33 PM 35.3658 -90.7444 240° Southwest 422 486 36,000  Level Memphis Center
Sun 06:24:35 PM 35.3094 -90.8678 241° Southwest 422 486 36,000  Level Memphis Center
Sun 06:25:37 PM 35.2514 -90.9906 240° Southwest 420 483 36,000  Level Memphis Center
Sun 06:26:39 PM 35.1894 -91.1208 240° Southwest 420 483 36,000  Level Memphis Center
Sun 06:27:40 PM 35.1350 -91.2361 240° Southwest 420 483 36,000  Level Memphis Center
Sun 06:28:42 PM 35.0636 -91.3831 239° Southwest 420 483 36,000  Level Memphis Center
Sun 06:29:44 PM 35.0114 -91.4903 239° Southwest 420 483 36,000  Level Memphis Center
Sun 06:30:46 PM 34.9514 -91.6131 239° Southwest 420 483 36,000  Level Memphis Center
Sun 06:31:48 PM 34.8803 -91.7600 239° Southwest 420 483 36,000  Level Memphis Center
Sun 06:32:49 PM 34.8225 -91.8825 240° Southwest 420 483 36,000  Level Memphis Center
Sun 06:33:51 PM 34.7619 -92.0069 239° Southwest 420 483 36,000  Level Memphis Center
Sun 06:34:53 PM 34.7014 -92.1297 239° Southwest 421 484 36,000  Level Memphis Center
Sun 06:35:55 PM 34.6542 -92.2611 246° West 422 486 36,000  Level Memphis Center
Sun 06:36:57 PM 34.6200 -92.3989 253° West 423 487 36,000  Level Memphis Center
Sun 06:37:59 PM 34.5844 -92.5339 252° West 423 487 36,000  Level Memphis Center
Sun 06:39:00 PM 34.5408 -92.6961 252° West 421 484 36,000  Level Memphis Center
Sun 06:40:02 PM 34.5058 -92.8325 253° West 421 484 36,000  Level Memphis Center
Sun 06:41:04 PM 34.4694 -92.9667 252° West 421 484 36,000  Level Memphis Center
Sun 06:42:06 PM 34.4331 -93.1017 252° West 421 484 36,000  Level Memphis Center
Sun 06:43:08 PM 34.3964 -93.2339 251° West 420 483 36,000  Level Memphis Center
Sun 06:44:09 PM 34.3606 -93.3675 252° West 417 480 36,000  Level Memphis Center
Sun 06:45:11 PM 34.3236 -93.5014 252° West 418 481 36,000  Level Memphis Center
Sun 06:46:13 PM 34.2850 -93.6500 253° West 417 480 36,000  Level Memphis Center
Sun 06:47:15 PM 34.2475 -93.7817 251° West 417 480 36,000  Level Memphis Center
Sun 06:48:17 PM 34.2114 -93.9119 252° West 417 480 36,000  Level Memphis Center
Sun 06:49:18 PM 34.1742 -94.0436 251° West 417 480 36,000  Level Memphis Center
Sun 06:50:20 PM 34.1306 -94.2033 252° West 417 480 36,000  Level Memphis Center
Sun 06:51:22 PM 34.0789 -94.3286 244° Southwest 418 481 36,000  Level Memphis Center
Sun 06:52:24 PM 34.0233 -94.4528 242° Southwest 421 484 36,000  Level Memphis Center
Sun 06:53:26 PM 33.9697 -94.5792 243° Southwest 422 486 36,000 -857 Level Memphis Center
Sun 06:54:44 PM 33.8994 -94.7622 245° Southwest 436 502 34,000 -1,629 Descending Fort Worth Center
Sun 06:55:46 PM 33.8617 -94.8961 251° West 429 494 32,200 -1,790 Descending Fort Worth Center
Sun 06:56:48 PM 33.8308 -95.0286 254° West 416 479 30,300 -1,790 Descending Fort Worth Center
Sun 06:57:50 PM 33.7981 -95.1619 254° West 418 481 28,500 -1,742 Descending Fort Worth Center
Sun 06:58:52 PM 33.7675 -95.2914 254° West 409 471 26,700 -1,935 Descending Fort Worth Center
Sun 06:59:54 PM 33.7283 -95.4558 254° West 429 494 24,500 -1,935 Descending Fort Worth Center
Sun 07:00:56 PM 33.6939 -95.5911 253° West 429 494 22,700 -1,790 Descending Fort Worth Center
Sun 07:01:58 PM 33.6614 -95.7331 255° West 412 474 20,800 -1,790 Descending Fort Worth Center
Sun 07:03:00 PM 33.6303 -95.8619 254° West 406 467 19,000 -1,790 Descending Fort Worth Center
Sun 07:04:02 PM 33.5978 -95.9936 254° West 401 461 17,100 -1,887 Descending Fort Worth Center
Sun 07:05:04 PM 33.5650 -96.1253 253° West 387 445 15,100 -1,839 Descending Fort Worth Center
Sun 07:06:06 PM 33.5283 -96.2436 250° West 384 442 13,300 -1,694 Descending Fort Worth Center
Sun 07:07:08 PM 33.4547 -96.3319 225° Southwest 347 399 11,600 -1,113 Descending Fort Worth Center
Sun 07:08:10 PM 33.3967 -96.4014 225° Southwest 294 338 11,000 -387 Descending Fort Worth Center
Sun 07:09:12 PM 33.3453 -96.4669 227° Southwest 274 315 10,800 -871 Descending Fort Worth Center
Sun 07:10:14 PM 33.3097 -96.5514 243° Southwest 265 305 9,200 -1,742 Descending Fort Worth Center
Sun 07:11:16 PM 33.2781 -96.6308 245° Southwest 264 304 7,200 -1,935 Descending Fort Worth Center
Sun 07:12:18 PM 33.2453 -96.7189 246° West 268 308 5,200 -1,065 Descending Fort Worth Center
Sun 07:13:20 PM 33.1994 -96.7858 231° Southwest 264 304 5,000 -97 Descending Fort Worth Center
Sun 07:14:22 PM 33.1494 -96.8544 229° Southwest 260 299 5,000 -774 Level Fort Worth Center
Sun 07:15:24 PM 33.1058 -96.9225 233° Southwest 260 299 3,400 -1,016 Descending Fort Worth Center
Sun 07:16:26 PM 33.0600 -96.9911 231° Southwest 245 282 2,900 -435 Descending Fort Worth Center
Sun 07:17:28 PM 33.0169 -97.0258 214° Southwest 194 223 2,500 -585 Descending Fort Worth Center
Sun 07:18:29 PM 32.9681 -97.0258 180° South 161 185 1,700 -780 Descending Fort Worth Center
Sun 07:19:31 PM 32.9283 -97.0264 181° South 147 169 900 -774 Descending Fort Worth Center
Sun 07:21:00 PM 32.8968 -97.0380 210° Southwest  Level Estimated
Sun 07:28:00 PM 32.8968 -97.0380 North  Level Estimated
Sun 07:29:00 PM 32.8968 -97.0380 210° Southwest  Level Estimated

Login

Don't have an account? Register now (free) for customized features, flight alerts, and more!